createdAt,value
2023-04-02T00:03:59.698Z,110.81105
2023-04-02T00:09:01.214Z,84.3824
2023-04-02T00:14:02.684Z,116.91435
2023-04-02T00:19:04.275Z,89.95245
2023-04-02T00:24:05.667Z,224.46555
2023-04-02T00:29:07.162Z,73.3012
2023-04-02T00:34:08.622Z,62.7534
2023-04-02T00:39:10.040Z,54.4574
2023-04-02T00:44:11.463Z,61.50895
2023-04-02T00:49:12.954Z,63.40515
2023-04-02T00:54:14.563Z,47.5835
2023-04-02T00:59:16.151Z,25.18435
2023-04-02T01:04:17.566Z,19.8446
2023-04-02T01:09:19.176Z,14.22175
2023-04-02T01:14:20.710Z,13.92545
2023-04-02T01:19:22.109Z,14.9921
2023-04-02T01:24:23.549Z,16.05865
2023-04-02T01:29:24.965Z,18.1326
2023-04-02T01:34:26.760Z,25.71745
2023-04-02T01:39:28.457Z,38.9317
2023-04-02T01:44:29.970Z,47.6424
2023-04-02T01:49:31.377Z,46.10175
2023-04-02T01:54:32.804Z,32.2357
2023-04-02T01:59:34.219Z,21.6287
2023-04-02T02:04:35.650Z,12.74025
2023-04-02T02:09:37.212Z,7.5849
2023-04-02T02:14:38.603Z,4.91835
2023-04-02T02:19:40.204Z,3.24595
2023-04-02T02:24:41.834Z,1.6592
2023-04-02T02:29:43.292Z,1.53075
2023-04-02T02:34:44.711Z,0.47405
2023-04-02T02:39:46.126Z,1.16185
2023-04-02T02:44:47.595Z,0
2023-04-02T02:49:49.022Z,0
2023-04-02T02:54:50.442Z,0
2023-04-02T02:59:51.845Z,0
2023-04-02T03:04:53.330Z,0
2023-04-02T03:09:54.826Z,0
2023-04-02T03:14:56.272Z,0
2023-04-02T03:19:57.677Z,0
2023-04-02T03:24:59.198Z,0
2023-04-02T03:30:00.764Z,0
2023-04-02T03:35:02.269Z,0
2023-04-02T03:40:03.722Z,0
2023-04-02T03:45:05.251Z,0
